createdAt,value
2022-09-22T00:03:01.403Z,3.70
2022-09-22T00:08:03.068Z,3.22
2022-09-22T00:13:04.675Z,5.32
2022-09-22T00:18:06.259Z,4.40
2022-09-22T00:23:07.953Z,3.67
2022-09-22T00:28:12.029Z,4.88
2022-09-22T00:33:13.666Z,4.20
2022-09-22T00:38:15.263Z,4.88
2022-09-22T00:43:27.980Z,3.88
2022-09-22T00:48:33.847Z,4.15
2022-09-22T00:53:35.921Z,4.03
2022-09-22T00:58:43.759Z,4.40
2022-09-22T01:03:46.427Z,3.58
2022-09-22T01:08:48.203Z,3.92
2022-09-22T01:13:57.577Z,4.20
2022-09-22T01:19:27.207Z,3.75
2022-09-22T01:25:02.452Z,3.90
2022-09-22T01:30:21.246Z,3.63
2022-09-22T01:35:54.228Z,4.57
2022-09-22T01:41:03.888Z,4.18
2022-09-22T01:46:28.751Z,4.20
2022-09-22T01:51:37.452Z,3.53
2022-09-22T01:56:41.989Z,4.00
2022-09-22T02:01:55.016Z,3.97
2022-09-22T02:07:09.903Z,3.20
2022-09-22T02:12:11.501Z,4.00
2022-09-22T02:17:14.711Z,4.22
2022-09-22T02:22:16.339Z,3.95
2022-09-22T02:27:26.436Z,3.70
2022-09-22T02:32:29.754Z,3.80
2022-09-22T02:37:56.303Z,4.63
2022-09-22T02:42:57.846Z,4.05
2022-09-22T02:48:05.732Z,3.95
2022-09-22T02:53:13.930Z,4.00
2022-09-22T02:58:17.250Z,3.92
2022-09-22T03:03:19.114Z,3.70
2022-09-22T03:08:20.842Z,3.92
2022-09-22T03:13:22.459Z,3.83
2022-09-22T03:18:24.189Z,3.72
2022-09-22T03:23:25.992Z,3.80
2022-09-22T03:28:27.655Z,3.95
2022-09-22T03:33:29.246Z,3.10
2022-09-22T03:38:30.882Z,3.53
2022-09-22T03:43:32.465Z,3.83
2022-09-22T03:48:34.092Z,3.17
2022-09-22T03:53:36.588Z,3.30
2022-09-22T03:58:39.235Z,3.75
2022-09-22T04:03:41.039Z,3.70
2022-09-22T04:08:42.678Z,3.78
2022-09-22T04:13:46.642Z,4.15
2022-09-22T04:18:48.374Z,3.03
2022-09-22T04:23:50.126Z,3.22
2022-09-22T04:28:51.787Z,3.40
2022-09-22T04:33:53.439Z,3.28
2022-09-22T04:38:55.527Z,3.38
2022-09-22T04:43:57.663Z,3.53
2022-09-22T04:48:59.443Z,3.30
2022-09-22T04:54:01.143Z,3.35
2022-09-22T04:59:03.241Z,3.00
2022-09-22T05:04:05.250Z,3.63
2022-09-22T05:09:07.045Z,3.50
2022-09-22T05:14:25.615Z,3.67
2022-09-22T05:19:28.065Z,4.45
2022-09-22T05:24:29.984Z,5.47
2022-09-22T05:29:31.832Z,4.68
2022-09-22T05:34:33.450Z,5.15
2022-09-22T05:39:43.902Z,4.97
2022-09-22T05:44:45.490Z,5.25
2022-09-22T05:49:47.086Z,5.72
2022-09-22T05:54:48.718Z,5.55
2022-09-22T05:59:50.372Z,6.15
2022-09-22T06:04:52.339Z,5.32
2022-09-22T06:09:53.983Z,5.35
2022-09-22T06:14:56.639Z,6.00
2022-09-22T06:20:00.935Z,6.78
2022-09-22T06:25:03.411Z,7.55
2022-09-22T06:30:05.434Z,9.02
2022-09-22T06:35:07.772Z,8.27
2022-09-22T06:40:11.944Z,10.27
2022-09-22T06:45:17.748Z,10.63
2022-09-22T06:50:19.407Z,10.80
2022-09-22T06:55:20.966Z,11.57
2022-09-22T07:00:23.003Z,10.93
2022-09-22T07:05:24.680Z,12.00
2022-09-22T07:10:26.372Z,11.55
2022-09-22T07:15:30.074Z,11.73
2022-09-22T07:20:33.726Z,13.15
2022-09-22T07:25:35.951Z,11.05
2022-09-22T07:30:40.208Z,11.10
2022-09-22T07:35:41.760Z,10.18
2022-09-22T07:40:52.150Z,9.95
2022-09-22T07:45:57.239Z,9.35
2022-09-22T07:51:00.164Z,9.55
2022-09-22T07:56:12.359Z,9.98
2022-09-22T08:01:14.826Z,9.25
2022-09-22T08:06:18.513Z,9.93
2022-09-22T08:11:22.515Z,9.38
2022-09-22T08:16:28.304Z,9.63
2022-09-22T08:21:35.207Z,8.30
2022-09-22T08:26:38.950Z,7.88
2022-09-22T08:31:41.901Z,8.57
2022-09-22T08:36:47.363Z,7.38
2022-09-22T08:42:09.310Z,7.18
2022-09-22T08:47:17.161Z,6.80
2022-09-22T08:52:43.263Z,6.65
2022-09-22T08:58:09.131Z,6.78
2022-09-22T09:03:38.906Z,6.20
2022-09-22T09:09:05.008Z,6.57
2022-09-22T09:14:09.950Z,9.38
2022-09-22T09:19:37.850Z,5.20
2022-09-22T09:30:12.418Z,13.23
2022-09-22T09:35:16.621Z,11.75
2022-09-22T09:40:22.105Z,9.02
2022-09-22T09:45:32.841Z,4.68
2022-09-22T09:50:36.178Z,6.80
2022-09-22T09:55:37.774Z,4.35
2022-09-22T10:00:59.741Z,4.78
2022-09-22T10:06:06.258Z,4.78
2022-09-22T10:11:09.992Z,4.03
2022-09-22T10:16:28.891Z,4.30
2022-09-22T10:21:30.528Z,4.80
2022-09-22T10:26:33.484Z,4.40
2022-09-22T10:31:38.233Z,4.40
2022-09-22T10:36:45.680Z,3.80
2022-09-22T10:41:48.995Z,4.97
2022-09-22T10:47:14.498Z,4.65
2022-09-22T10:52:35.903Z,4.43
2022-09-22T10:57:43.575Z,4.55
2022-09-22T11:02:48.054Z,4.50
2022-09-22T11:08:26.350Z,3.28
2022-09-22T11:13:56.427Z,3.47
2022-09-22T11:19:31.681Z,3.50
2022-09-22T11:24:57.590Z,2.40
2022-09-22T11:30:11.695Z,2.17
2022-09-22T11:35:27.492Z,3.83
2022-09-22T11:40:45.069Z,2.58
2022-09-22T11:45:51.245Z,2.38
2022-09-22T11:51:23.317Z,4.22
2022-09-22T11:56:47.506Z,3.05
2022-09-22T12:01:50.948Z,3.08
2022-09-22T12:06:56.855Z,2.60
2022-09-22T12:12:01.406Z,3.60
2022-09-22T12:17:20.008Z,3.55
2022-09-22T12:22:37.745Z,3.95
2022-09-22T12:27:40.342Z,4.47
2022-09-22T12:32:43.000Z,3.88
2022-09-22T12:37:45.903Z,5.00
2022-09-22T12:42:51.819Z,4.15
2022-09-22T12:47:56.907Z,4.00
2022-09-22T12:53:03.454Z,4.35
2022-09-22T12:58:28.105Z,3.88
2022-09-22T13:03:30.598Z,4.20
2022-09-22T13:08:32.518Z,5.18
2022-09-22T13:13:41.666Z,3.95
2022-09-22T13:18:52.321Z,5.22
2022-09-22T13:23:54.022Z,4.15
2022-09-22T13:29:11.816Z,3.85
2022-09-22T13:34:31.117Z,3.83
2022-09-22T13:39:36.337Z,2.70
2022-09-22T13:44:40.338Z,2.45
2022-09-22T13:49:49.548Z,2.33
2022-09-22T13:55:04.698Z,3.13
2022-09-22T14:00:08.975Z,2.67
2022-09-22T14:05:18.895Z,2.83
2022-09-22T14:10:21.901Z,2.30
2022-09-22T14:15:33.652Z,3.35
2022-09-22T14:20:43.472Z,3.40
2022-09-22T14:25:45.496Z,3.83
2022-09-22T14:30:47.780Z,3.38
2022-09-22T14:35:52.189Z,3.35
2022-09-22T14:40:56.109Z,3.72
2022-09-22T14:46:00.670Z,4.05
2022-09-22T14:51:07.407Z,3.55
2022-09-22T14:56:22.944Z,3.92
2022-09-22T15:01:49.518Z,3.55
2022-09-22T15:06:56.435Z,2.97
2022-09-22T15:12:03.492Z,3.60
2022-09-22T15:17:44.083Z,7.57
2022-09-22T15:22:46.355Z,3.30
2022-09-22T15:27:53.530Z,3.10
2022-09-22T15:32:55.930Z,3.55
2022-09-22T15:37:57.712Z,4.00
2022-09-22T15:43:12.867Z,4.78
2022-09-22T15:48:24.973Z,3.70
2022-09-22T15:53:26.888Z,4.32
2022-09-22T15:58:41.716Z,4.25
2022-09-22T16:03:44.346Z,3.70
2022-09-22T16:08:51.713Z,4.53
2022-09-22T16:13:53.588Z,4.00
2022-09-22T16:18:56.002Z,3.75
2022-09-22T16:24:03.603Z,4.10
2022-09-22T16:29:07.215Z,3.58
2022-09-22T16:34:09.471Z,4.53
2022-09-22T16:39:11.156Z,3.42
2022-09-22T16:44:13.329Z,4.43
2022-09-22T16:49:20.341Z,4.15
2022-09-22T16:54:22.314Z,4.10
2022-09-22T16:59:24.011Z,4.75
2022-09-22T17:04:25.823Z,5.75
2022-09-22T17:09:27.505Z,5.25
2022-09-22T17:14:29.679Z,8.68
2022-09-22T17:19:31.259Z,8.25
2022-09-22T17:24:32.931Z,7.60
2022-09-22T17:29:34.971Z,6.75
2022-09-22T17:34:38.308Z,7.40
2022-09-22T17:39:40.187Z,5.43
2022-09-22T17:44:41.935Z,5.30
2022-09-22T17:50:02.388Z,5.82
2022-09-22T17:55:11.835Z,5.53
2022-09-22T18:00:16.800Z,6.00
2022-09-22T18:05:22.003Z,5.03
2022-09-22T18:10:32.197Z,8.65
2022-09-22T18:15:34.074Z,6.65
2022-09-22T18:20:35.612Z,8.70
2022-09-22T18:25:37.260Z,5.80
2022-09-22T18:30:40.630Z,16.85
2022-09-22T18:35:46.106Z,8.85
2022-09-22T18:40:49.399Z,6.28
2022-09-22T18:45:51.185Z,7.25
2022-09-22T18:50:54.244Z,6.40
2022-09-22T18:55:56.611Z,7.18
2022-09-22T19:00:59.688Z,6.65
2022-09-22T19:06:02.469Z,6.05
2022-09-22T19:11:04.317Z,5.78
2022-09-22T19:16:06.576Z,5.97
2022-09-22T19:21:14.350Z,6.10
2022-09-22T19:26:17.201Z,7.93
2022-09-22T19:31:18.861Z,8.63
2022-09-22T19:36:20.478Z,7.40
2022-09-22T19:41:24.128Z,6.07
2022-09-22T19:46:25.737Z,8.18
2022-09-22T19:51:27.486Z,7.70
2022-09-22T19:56:29.090Z,7.57
2022-09-22T20:01:34.598Z,8.43
2022-09-22T20:06:36.254Z,8.43
2022-09-22T20:11:43.932Z,7.63
2022-09-22T20:16:47.594Z,9.60
2022-09-22T20:21:51.465Z,8.48
2022-09-22T20:26:53.278Z,10.52
2022-09-22T20:31:55.264Z,9.30
2022-09-22T20:36:57.209Z,8.75
2022-09-22T20:41:59.807Z,8.85
2022-09-22T20:47:01.552Z,9.45
2022-09-22T20:52:03.413Z,8.98
2022-09-22T20:57:05.785Z,9.30
2022-09-22T21:02:07.537Z,8.30
2022-09-22T21:07:10.190Z,8.40
2022-09-22T21:12:13.536Z,9.90
2022-09-22T21:17:15.600Z,9.55
2022-09-22T21:22:17.422Z,8.77
2022-09-22T21:27:19.807Z,9.63
2022-09-22T21:32:22.149Z,9.70
2022-09-22T21:37:25.030Z,9.27
2022-09-22T21:42:27.681Z,8.23
2022-09-22T21:47:29.461Z,6.35
2022-09-22T21:52:31.294Z,7.78
2022-09-22T21:57:32.935Z,7.43
2022-09-22T22:02:54.636Z,8.10
2022-09-22T22:07:56.652Z,8.85
2022-09-22T22:12:58.292Z,8.25
2022-09-22T22:17:59.859Z,7.43
2022-09-22T22:23:01.392Z,8.57
2022-09-22T22:28:03.074Z,7.40
2022-09-22T22:33:04.895Z,8.07
2022-09-22T22:38:06.649Z,8.77
2022-09-22T22:43:08.254Z,7.40
2022-09-22T22:48:10.875Z,9.38
2022-09-22T22:53:13.303Z,6.97
2022-09-22T22:58:14.913Z,7.30
2022-09-22T23:03:16.542Z,7.35
2022-09-22T23:08:18.173Z,7.47
2022-09-22T23:13:19.828Z,7.05
2022-09-22T23:18:21.418Z,6.38
2022-09-22T23:23:23.448Z,7.38
2022-09-22T23:28:25.747Z,7.00
2022-09-22T23:33:28.825Z,6.82
2022-09-22T23:38:32.174Z,7.22
2022-09-22T23:43:33.810Z,7.18
2022-09-22T23:48:36.236Z,7.47
2022-09-22T23:53:38.019Z,8.27
2022-09-22T23:58:39.605Z,7.22
